sensor_id;sensor_type;location;lat;lon;timestamp;P1;durP1;ratioP1;P2;durP2;ratioP2
6251;SDS011;3159;52.414;9.784;2023-05-07T00:00:48;19.37;;;15.17;;
6251;SDS011;3159;52.414;9.784;2023-05-07T00:03:16;18.63;;;15.33;;
6251;SDS011;3159;52.414;9.784;2023-05-07T00:05:44;19.93;;;15.57;;
6251;SDS011;3159;52.414;9.784;2023-05-07T00:08:12;20.87;;;17.20;;
6251;SDS011;3159;52.414;9.784;2023-05-07T00:10:40;18.70;;;15.87;;
6251;SDS011;3159;52.414;9.784;2023-05-07T00:13:07;21.50;;;15.70;;
6251;SDS011;3159;52.414;9.784;2023-05-07T00:15:34;20.27;;;16.53;;
6251;SDS011;3159;52.414;9.784;2023-05-07T00:18:01;21.07;;;16.20;;
6251;SDS011;3159;52.414;9.784;2023-05-07T00:20:28;20.50;;;16.37;;
6251;SDS011;3159;52.414;9.784;2023-05-07T00:22:55;23.50;;;16.97;;
6251;SDS011;3159;52.414;9.784;2023-05-07T00:25:23;20.87;;;15.77;;
6251;SDS011;3159;52.414;9.784;2023-05-07T00:27:50;27.43;;;18.47;;
6251;SDS011;3159;52.414;9.784;2023-05-07T00:30:17;21.77;;;17.00;;
6251;SDS011;3159;52.414;9.784;2023-05-07T00:32:45;21.60;;;16.43;;
6251;SDS011;3159;52.414;9.784;2023-05-07T00:35:13;20.97;;;16.63;;
6251;SDS011;3159;52.414;9.784;2023-05-07T00:37:40;22.37;;;16.83;;
6251;SDS011;3159;52.414;9.784;2023-05-07T00:40:08;27.43;;;17.43;;
6251;SDS011;3159;52.414;9.784;2023-05-07T00:42:37;20.40;;;15.13;;
6251;SDS011;3159;52.414;9.784;2023-05-07T00:45:05;20.87;;;15.60;;
6251;SDS011;3159;52.414;9.784;2023-05-07T00:47:32;20.13;;;14.80;;
6251;SDS011;3159;52.414;9.784;2023-05-07T00:49:59;22.03;;;15.97;;
6251;SDS011;3159;52.414;9.784;2023-05-07T00:52:26;23.37;;;16.23;;
6251;SDS011;3159;52.414;9.784;2023-05-07T00:54:54;23.03;;;17.07;;
6251;SDS011;3159;52.414;9.784;2023-05-07T00:57:21;24.87;;;18.37;;
6251;SDS011;3159;52.414;9.784;2023-05-07T00:59:52;23.07;;;17.47;;
6251;SDS011;3159;52.414;9.784;2023-05-07T01:02:19;23.00;;;16.53;;
6251;SDS011;3159;52.414;9.784;2023-05-07T01:04:46;26.10;;;18.67;;
6251;SDS011;3159;52.414;9.784;2023-05-07T01:07:12;25.87;;;19.07;;
6251;SDS011;3159;52.414;9.784;2023-05-07T01:09:39;26.13;;;19.97;;
6251;SDS011;3159;52.414;9.784;2023-05-07T01:12:07;23.80;;;18.10;;
6251;SDS011;3159;52.414;9.784;2023-05-07T01:14:34;26.03;;;18.53;;
6251;SDS011;3159;52.414;9.784;2023-05-07T01:17:03;27.10;;;19.63;;
6251;SDS011;3159;52.414;9.784;2023-05-07T01:19:30;25.83;;;19.20;;
6251;SDS011;3159;52.414;9.784;2023-05-07T01:22:00;26.17;;;19.47;;
6251;SDS011;3159;52.414;9.784;2023-05-07T01:24:31;30.43;;;19.17;;
6251;SDS011;3159;52.414;9.784;2023-05-07T01:26:58;25.97;;;17.93;;
6251;SDS011;3159;52.414;9.784;2023-05-07T01:29:26;27.27;;;19.20;;
6251;SDS011;3159;52.414;9.784;2023-05-07T01:31:53;25.40;;;19.90;;
6251;SDS011;3159;52.414;9.784;2023-05-07T01:34:23;25.87;;;19.37;;
6251;SDS011;3159;52.414;9.784;2023-05-07T01:36:53;25.10;;;20.00;;
6251;SDS011;3159;52.414;9.784;2023-05-07T01:39:23;27.53;;;18.87;;
6251;SDS011;3159;52.414;9.784;2023-05-07T01:41:53;25.37;;;18.77;;
6251;SDS011;3159;52.414;9.784;2023-05-07T01:44:21;25.67;;;19.33;;
6251;SDS011;3159;52.414;9.784;2023-05-07T01:46:49;24.23;;;18.93;;
6251;SDS011;3159;52.414;9.784;2023-05-07T01:49:16;26.33;;;19.73;;
6251;SDS011;3159;52.414;9.784;2023-05-07T01:51:44;26.63;;;19.07;;
6251;SDS011;3159;52.414;9.784;2023-05-07T01:54:11;26.50;;;18.07;;
6251;SDS011;3159;52.414;9.784;2023-05-07T01:56:38;24.00;;;18.20;;
6251;SDS011;3159;52.414;9.784;2023-05-07T01:59:06;25.13;;;17.20;;
6251;SDS011;3159;52.414;9.784;2023-05-07T02:01:33;23.03;;;17.63;;
6251;SDS011;3159;52.414;9.784;2023-05-07T02:04:00;21.50;;;16.13;;
6251;SDS011;3159;52.414;9.784;2023-05-07T02:06:27;20.10;;;15.30;;
6251;SDS011;3159;52.414;9.784;2023-05-07T02:08:54;18.87;;;13.70;;
6251;SDS011;3159;52.414;9.784;2023-05-07T02:11:21;18.13;;;13.40;;
6251;SDS011;3159;52.414;9.784;2023-05-07T02:13:48;17.30;;;14.13;;
6251;SDS011;3159;52.414;9.784;2023-05-07T02:16:16;18.87;;;14.03;;
6251;SDS011;3159;52.414;9.784;2023-05-07T02:18:44;17.87;;;13.50;;
6251;SDS011;3159;52.414;9.784;2023-05-07T02:21:11;18.47;;;13.80;;
6251;SDS011;3159;52.414;9.784;2023-05-07T02:23:38;15.73;;;12.50;;
6251;SDS011;3159;52.414;9.784;2023-05-07T02:26:05;16.63;;;12.97;;
6251;SDS011;3159;52.414;9.784;2023-05-07T02:28:32;16.27;;;11.80;;
6251;SDS011;3159;52.414;9.784;2023-05-07T02:31:00;16.33;;;12.20;;
6251;SDS011;3159;52.414;9.784;2023-05-07T02:33:30;15.10;;;12.53;;
6251;SDS011;3159;52.414;9.784;2023-05-07T02:35:57;15.07;;;11.97;;
6251;SDS011;3159;52.414;9.784;2023-05-07T02:38:32;16.07;;;12.07;;
6251;SDS011;3159;52.414;9.784;2023-05-07T02:40:58;16.10;;;11.97;;
6251;SDS011;3159;52.414;9.784;2023-05-07T02:43:25;16.83;;;12.50;;
6251;SDS011;3159;52.414;9.784;2023-05-07T02:45:59;16.83;;;12.70;;
6251;SDS011;3159;52.414;9.784;2023-05-07T02:48:27;15.57;;;12.57;;
6251;SDS011;3159;52.414;9.784;2023-05-07T02:50:56;14.97;;;11.10;;
6251;SDS011;3159;52.414;9.784;2023-05-07T02:53:22;15.70;;;12.17;;
6251;SDS011;3159;52.414;9.784;2023-05-07T02:55:51;17.27;;;12.43;;
6251;SDS011;3159;52.414;9.784;2023-05-07T02:58:18;17.97;;;12.23;;
6251;SDS011;3159;52.414;9.784;2023-05-07T03:00:45;15.40;;;12.37;;
6251;SDS011;3159;52.414;9.784;2023-05-07T03:03:12;16.70;;;12.33;;
6251;SDS011;3159;52.414;9.784;2023-05-07T03:05:41;14.27;;;11.80;;
6251;SDS011;3159;52.414;9.784;2023-05-07T03:08:08;16.00;;;12.17;;
6251;SDS011;3159;52.414;9.784;2023-05-07T03:10:36;16.87;;;12.60;;
6251;SDS011;3159;52.414;9.784;2023-05-07T03:13:04;18.23;;;12.50;;
6251;SDS011;3159;52.414;9.784;2023-05-07T03:15:31;17.70;;;14.27;;
6251;SDS011;3159;52.414;9.784;2023-05-07T03:17:58;16.57;;;13.60;;
6251;SDS011;3159;52.414;9.784;2023-05-07T03:20:25;18.17;;;14.43;;
6251;SDS011;3159;52.414;9.784;2023-05-07T03:22:53;16.63;;;12.70;;
6251;SDS011;3159;52.414;9.784;2023-05-07T03:25:20;18.37;;;14.63;;
6251;SDS011;3159;52.414;9.784;2023-05-07T03:27:47;19.73;;;13.50;;
6251;SDS011;3159;52.414;9.784;2023-05-07T03:30:14;18.17;;;14.23;;
6251;SDS011;3159;52.414;9.784;2023-05-07T03:32:41;17.80;;;12.90;;
6251;SDS011;3159;52.414;9.784;2023-05-07T03:35:08;17.70;;;14.30;;
6251;SDS011;3159;52.414;9.784;2023-05-07T03:37:35;21.30;;;14.20;;
6251;SDS011;3159;52.414;9.784;2023-05-07T03:40:04;20.20;;;13.97;;
6251;SDS011;3159;52.414;9.784;2023-05-07T03:42:31;16.87;;;13.03;;
6251;SDS011;3159;52.414;9.784;2023-05-07T03:44:58;18.07;;;13.60;;
6251;SDS011;3159;52.414;9.784;2023-05-07T03:47:25;17.13;;;12.90;;
6251;SDS011;3159;52.414;9.784;2023-05-07T03:49:52;16.23;;;13.03;;
6251;SDS011;3159;52.414;9.784;2023-05-07T03:52:20;15.37;;;11.80;;
6251;SDS011;3159;52.414;9.784;2023-05-07T03:54:50;17.13;;;12.87;;
6251;SDS011;3159;52.414;9.784;2023-05-07T03:57:19;17.77;;;13.03;;
6251;SDS011;3159;52.414;9.784;2023-05-07T03:59:46;14.63;;;12.07;;
6251;SDS011;3159;52.414;9.784;2023-05-07T04:02:13;15.17;;;11.67;;
6251;SDS011;3159;52.414;9.784;2023-05-07T04:04:40;14.23;;;11.63;;
6251;SDS011;3159;52.414;9.784;2023-05-07T04:07:07;12.90;;;10.50;;
6251;SDS011;3159;52.414;9.784;2023-05-07T04:09:35;12.73;;;9.73;;
6251;SDS011;3159;52.414;9.784;2023-05-07T04:12:02;12.83;;;10.10;;
6251;SDS011;3159;52.414;9.784;2023-05-07T04:14:30;13.07;;;9.97;;
6251;SDS011;3159;52.414;9.784;2023-05-07T04:16:58;11.93;;;9.20;;
6251;SDS011;3159;52.414;9.784;2023-05-07T04:19:25;11.30;;;9.23;;
6251;SDS011;3159;52.414;9.784;2023-05-07T04:21:52;11.77;;;9.70;;
6251;SDS011;3159;52.414;9.784;2023-05-07T04:24:19;12.47;;;8.90;;
6251;SDS011;3159;52.414;9.784;2023-05-07T04:26:45;12.67;;;10.30;;
6251;SDS011;3159;52.414;9.784;2023-05-07T04:29:12;13.87;;;10.93;;
6251;SDS011;3159;52.414;9.784;2023-05-07T04:31:41;13.60;;;11.17;;
6251;SDS011;3159;52.414;9.784;2023-05-07T04:34:09;12.57;;;10.60;;
6251;SDS011;3159;52.414;9.784;2023-05-07T04:36:36;15.70;;;11.70;;
6251;SDS011;3159;52.414;9.784;2023-05-07T04:39:03;13.50;;;11.27;;
6251;SDS011;3159;52.414;9.784;2023-05-07T04:41:31;13.80;;;10.80;;
6251;SDS011;3159;52.414;9.784;2023-05-07T04:43:58;15.23;;;11.07;;
6251;SDS011;3159;52.414;9.784;2023-05-07T04:46:25;13.07;;;10.60;;
6251;SDS011;3159;52.414;9.784;2023-05-07T04:48:53;13.00;;;10.80;;
6251;SDS011;3159;52.414;9.784;2023-05-07T04:51:20;12.03;;;10.27;;
6251;SDS011;3159;52.414;9.784;2023-05-07T04:53:47;12.00;;;9.77;;
6251;SDS011;3159;52.414;9.784;2023-05-07T04:56:14;12.27;;;10.33;;
6251;SDS011;3159;52.414;9.784;2023-05-07T04:58:41;12.90;;;10.50;;
6251;SDS011;3159;52.414;9.784;2023-05-07T05:01:08;13.03;;;10.40;;
6251;SDS011;3159;52.414;9.784;2023-05-07T05:03:35;14.50;;;10.80;;
6251;SDS011;3159;52.414;9.784;2023-05-07T05:06:04;12.93;;;10.93;;
6251;SDS011;3159;52.414;9.784;2023-05-07T05:08:31;14.57;;;11.20;;
6251;SDS011;3159;52.414;9.784;2023-05-07T05:10:58;13.10;;;10.47;;
6251;SDS011;3159;52.414;9.784;2023-05-07T05:13:26;12.83;;;10.83;;
6251;SDS011;3159;52.414;9.784;2023-05-07T05:15:53;12.07;;;10.10;;
6251;SDS011;3159;52.414;9.784;2023-05-07T05:18:21;13.70;;;11.90;;
6251;SDS011;3159;52.414;9.784;2023-05-07T05:20:48;12.27;;;10.67;;
6251;SDS011;3159;52.414;9.784;2023-05-07T05:23:16;14.50;;;10.40;;
6251;SDS011;3159;52.414;9.784;2023-05-07T05:25:43;13.03;;;10.20;;
6251;SDS011;3159;52.414;9.784;2023-05-07T05:28:10;10.57;;;9.27;;
6251;SDS011;3159;52.414;9.784;2023-05-07T05:30:38;11.07;;;9.17;;
6251;SDS011;3159;52.414;9.784;2023-05-07T05:33:05;11.03;;;8.27;;
6251;SDS011;3159;52.414;9.784;2023-05-07T05:35:32;10.77;;;9.67;;
6251;SDS011;3159;52.414;9.784;2023-05-07T05:38:00;12.47;;;9.63;;
6251;SDS011;3159;52.414;9.784;2023-05-07T05:40:28;9.93;;;8.17;;
6251;SDS011;3159;52.414;9.784;2023-05-07T05:42:55;11.10;;;8.73;;
6251;SDS011;3159;52.414;9.784;2023-05-07T05:45:22;9.00;;;8.10;;
6251;SDS011;3159;52.414;9.784;2023-05-07T05:47:49;9.57;;;8.03;;
6251;SDS011;3159;52.414;9.784;2023-05-07T05:50:16;9.33;;;8.37;;
6251;SDS011;3159;52.414;9.784;2023-05-07T05:52:43;8.67;;;7.77;;
6251;SDS011;3159;52.414;9.784;2023-05-07T05:55:10;9.17;;;7.97;;
6251;SDS011;3159;52.414;9.784;2023-05-07T05:57:38;8.80;;;7.00;;
6251;SDS011;3159;52.414;9.784;2023-05-07T06:00:06;10.23;;;7.57;;
6251;SDS011;3159;52.414;9.784;2023-05-07T06:02:34;8.70;;;7.17;;
6251;SDS011;3159;52.414;9.784;2023-05-07T06:05:01;9.87;;;8.10;;
6251;SDS011;3159;52.414;9.784;2023-05-07T06:07:27;8.87;;;7.97;;
6251;SDS011;3159;52.414;9.784;2023-05-07T06:09:54;11.17;;;8.10;;
6251;SDS011;3159;52.414;9.784;2023-05-07T06:12:21;10.00;;;8.10;;
6251;SDS011;3159;52.414;9.784;2023-05-07T06:14:50;9.00;;;8.10;;
6251;SDS011;3159;52.414;9.784;2023-05-07T06:17:17;9.53;;;7.80;;
6251;SDS011;3159;52.414;9.784;2023-05-07T06:19:44;10.13;;;7.70;;
6251;SDS011;3159;52.414;9.784;2023-05-07T06:22:11;8.37;;;7.57;;
6251;SDS011;3159;52.414;9.784;2023-05-07T06:24:37;10.47;;;7.80;;
6251;SDS011;3159;52.414;9.784;2023-05-07T06:27:04;7.93;;;7.13;;
6251;SDS011;3159;52.414;9.784;2023-05-07T06:29:31;9.43;;;8.43;;
6251;SDS011;3159;52.414;9.784;2023-05-07T06:32:07;9.50;;;7.97;;
6251;SDS011;3159;52.414;9.784;2023-05-07T06:34:34;7.87;;;7.07;;
6251;SDS011;3159;52.414;9.784;2023-05-07T06:37:01;8.67;;;7.77;;
6251;SDS011;3159;52.414;9.784;2023-05-07T06:39:28;9.40;;;8.10;;
6251;SDS011;3159;52.414;9.784;2023-05-07T06:41:55;9.77;;;8.77;;
6251;SDS011;3159;52.414;9.784;2023-05-07T06:44:22;9.23;;;8.23;;
6251;SDS011;3159;52.414;9.784;2023-05-07T06:46:49;9.40;;;8.20;;
6251;SDS011;3159;52.414;9.784;2023-05-07T06:49:17;10.57;;;9.47;;
6251;SDS011;3159;52.414;9.784;2023-05-07T06:51:44;10.37;;;8.93;;
6251;SDS011;3159;52.414;9.784;2023-05-07T06:54:11;9.83;;;8.83;;
6251;SDS011;3159;52.414;9.784;2023-05-07T06:56:38;9.43;;;8.43;;
6251;SDS011;3159;52.414;9.784;2023-05-07T06:59:05;10.37;;;8.77;;
6251;SDS011;3159;52.414;9.784;2023-05-07T07:01:32;11.23;;;9.37;;
6251;SDS011;3159;52.414;9.784;2023-05-07T07:03:59;11.57;;;10.37;;
6251;SDS011;3159;52.414;9.784;2023-05-07T07:06:28;11.47;;;10.37;;
6251;SDS011;3159;52.414;9.784;2023-05-07T07:08:56;12.37;;;11.07;;
6251;SDS011;3159;52.414;9.784;2023-05-07T07:11:23;13.63;;;11.57;;
6251;SDS011;3159;52.414;9.784;2023-05-07T07:13:50;15.23;;;12.23;;
6251;SDS011;3159;52.414;9.784;2023-05-07T07:16:19;13.17;;;11.77;;
6251;SDS011;3159;52.414;9.784;2023-05-07T07:18:46;12.60;;;11.30;;
6251;SDS011;3159;52.414;9.784;2023-05-07T07:21:13;13.37;;;11.97;;
6251;SDS011;3159;52.414;9.784;2023-05-07T07:23:41;14.17;;;12.67;;
6251;SDS011;3159;52.414;9.784;2023-05-07T07:26:08;13.93;;;12.27;;
6251;SDS011;3159;52.414;9.784;2023-05-07T07:28:36;13.40;;;11.00;;
6251;SDS011;3159;52.414;9.784;2023-05-07T07:31:08;12.47;;;11.17;;
6251;SDS011;3159;52.414;9.784;2023-05-07T07:33:36;11.10;;;9.97;;
6251;SDS011;3159;52.414;9.784;2023-05-07T07:36:03;13.17;;;10.87;;
6251;SDS011;3159;52.414;9.784;2023-05-07T07:38:31;11.83;;;10.63;;
6251;SDS011;3159;52.414;9.784;2023-05-07T07:40:59;13.90;;;10.93;;
6251;SDS011;3159;52.414;9.784;2023-05-07T07:43:26;13.30;;;10.77;;
6251;SDS011;3159;52.414;9.784;2023-05-07T07:45:53;11.87;;;10.10;;
6251;SDS011;3159;52.414;9.784;2023-05-07T07:48:20;12.97;;;11.20;;
6251;SDS011;3159;52.414;9.784;2023-05-07T07:50:48;10.77;;;9.70;;
6251;SDS011;3159;52.414;9.784;2023-05-07T07:53:16;11.33;;;9.60;;
6251;SDS011;3159;52.414;9.784;2023-05-07T07:55:43;12.00;;;10.47;;
6251;SDS011;3159;52.414;9.784;2023-05-07T07:58:11;10.73;;;9.30;;
6251;SDS011;3159;52.414;9.784;2023-05-07T08:00:38;10.20;;;9.20;;
6251;SDS011;3159;52.414;9.784;2023-05-07T08:03:05;9.73;;;8.73;;
6251;SDS011;3159;52.414;9.784;2023-05-07T08:05:35;9.83;;;8.83;;
6251;SDS011;3159;52.414;9.784;2023-05-07T08:08:03;11.87;;;9.27;;
6251;SDS011;3159;52.414;9.784;2023-05-07T08:10:30;10.03;;;9.03;;
6251;SDS011;3159;52.414;9.784;2023-05-07T08:12:59;10.17;;;9.00;;
6251;SDS011;3159;52.414;9.784;2023-05-07T08:15:28;9.43;;;8.43;;
6251;SDS011;3159;52.414;9.784;2023-05-07T08:17:55;10.57;;;8.97;;
6251;SDS011;3159;52.414;9.784;2023-05-07T08:20:22;10.47;;;8.50;;
6251;SDS011;3159;52.414;9.784;2023-05-07T08:22:49;8.97;;;7.80;;
6251;SDS011;3159;52.414;9.784;2023-05-07T08:25:17;9.37;;;8.30;;
6251;SDS011;3159;52.414;9.784;2023-05-07T08:27:44;8.80;;;7.90;;
6251;SDS011;3159;52.414;9.784;2023-05-07T08:30:12;9.83;;;8.83;;
6251;SDS011;3159;52.414;9.784;2023-05-07T08:32:41;8.93;;;8.03;;
6251;SDS011;3159;52.414;9.784;2023-05-07T08:35:08;10.00;;;9.00;;
6251;SDS011;3159;52.414;9.784;2023-05-07T08:37:35;10.33;;;9.33;;
6251;SDS011;3159;52.414;9.784;2023-05-07T08:40:04;9.03;;;7.83;;
6251;SDS011;3159;52.414;9.784;2023-05-07T08:42:32;8.97;;;8.07;;
6251;SDS011;3159;52.414;9.784;2023-05-07T08:45:03;9.63;;;8.63;;
6251;SDS011;3159;52.414;9.784;2023-05-07T08:47:38;8.80;;;7.90;;
6251;SDS011;3159;52.414;9.784;2023-05-07T08:50:10;9.07;;;8.17;;
6251;SDS011;3159;52.414;9.784;2023-05-07T08:52:38;9.53;;;8.53;;
6251;SDS011;3159;52.414;9.784;2023-05-07T08:55:06;9.13;;;8.07;;
6251;SDS011;3159;52.414;9.784;2023-05-07T08:57:34;9.33;;;8.30;;
6251;SDS011;3159;52.414;9.784;2023-05-07T09:00:01;9.80;;;8.80;;
6251;SDS011;3159;52.414;9.784;2023-05-07T09:02:29;10.53;;;9.43;;
6251;SDS011;3159;52.414;9.784;2023-05-07T09:04:57;10.07;;;9.07;;
6251;SDS011;3159;52.414;9.784;2023-05-07T09:07:24;11.90;;;9.93;;
6251;SDS011;3159;52.414;9.784;2023-05-07T09:09:52;11.97;;;10.10;;
6251;SDS011;3159;52.414;9.784;2023-05-07T09:12:20;10.20;;;8.87;;
6251;SDS011;3159;52.414;9.784;2023-05-07T09:14:47;10.67;;;9.57;;
6251;SDS011;3159;52.414;9.784;2023-05-07T09:17:15;10.20;;;9.00;;
6251;SDS011;3159;52.414;9.784;2023-05-07T09:19:43;10.50;;;9.50;;
6251;SDS011;3159;52.414;9.784;2023-05-07T09:22:11;10.80;;;9.70;;
6251;SDS011;3159;52.414;9.784;2023-05-07T09:24:39;10.90;;;9.80;;
6251;SDS011;3159;52.414;9.784;2023-05-07T09:27:06;10.47;;;9.37;;
6251;SDS011;3159;52.414;9.784;2023-05-07T09:29:35;9.67;;;8.70;;
6251;SDS011;3159;52.414;9.784;2023-05-07T09:32:02;11.40;;;9.20;;
6251;SDS011;3159;52.414;9.784;2023-05-07T09:34:29;10.50;;;9.40;;
6251;SDS011;3159;52.414;9.784;2023-05-07T09:36:57;11.03;;;9.93;;
6251;SDS011;3159;52.414;9.784;2023-05-07T09:39:26;9.73;;;8.73;;
6251;SDS011;3159;52.414;9.784;2023-05-07T09:42:05;10.50;;;8.93;;
6251;SDS011;3159;52.414;9.784;2023-05-07T09:44:32;10.50;;;9.50;;
6251;SDS011;3159;52.414;9.784;2023-05-07T09:46:59;11.07;;;9.73;;
6251;SDS011;3159;52.414;9.784;2023-05-07T09:49:28;11.13;;;10.03;;
6251;SDS011;3159;52.414;9.784;2023-05-07T09:51:56;10.57;;;9.53;;
6251;SDS011;3159;52.414;9.784;2023-05-07T09:54:24;11.10;;;9.80;;
6251;SDS011;3159;52.414;9.784;2023-05-07T09:56:53;11.57;;;10.10;;
6251;SDS011;3159;52.414;9.784;2023-05-07T09:59:21;10.33;;;9.23;;
6251;SDS011;3159;52.414;9.784;2023-05-07T10:01:49;12.23;;;10.00;;
6251;SDS011;3159;52.414;9.784;2023-05-07T10:04:18;11.17;;;9.97;;
6251;SDS011;3159;52.414;9.784;2023-05-07T10:06:47;11.50;;;9.97;;
6251;SDS011;3159;52.414;9.784;2023-05-07T10:09:14;12.13;;;9.97;;
6251;SDS011;3159;52.414;9.784;2023-05-07T10:11:41;10.30;;;9.30;;
6251;SDS011;3159;52.414;9.784;2023-05-07T10:14:10;11.07;;;9.93;;
6251;SDS011;3159;52.414;9.784;2023-05-07T10:16:37;10.63;;;9.53;;
6251;SDS011;3159;52.414;9.784;2023-05-07T10:19:04;10.43;;;9.33;;
6251;SDS011;3159;52.414;9.784;2023-05-07T10:21:32;11.50;;;9.73;;
6251;SDS011;3159;52.414;9.784;2023-05-07T10:24:04;12.83;;;10.73;;
6251;SDS011;3159;52.414;9.784;2023-05-07T10:26:33;11.83;;;10.50;;
6251;SDS011;3159;52.414;9.784;2023-05-07T10:29:02;11.20;;;10.10;;
6251;SDS011;3159;52.414;9.784;2023-05-07T10:31:38;11.20;;;10.03;;
6251;SDS011;3159;52.414;9.784;2023-05-07T10:34:17;10.90;;;9.90;;
6251;SDS011;3159;52.414;9.784;2023-05-07T10:36:47;11.70;;;9.57;;
6251;SDS011;3159;52.414;9.784;2023-05-07T10:39:15;9.50;;;8.60;;
6251;SDS011;3159;52.414;9.784;2023-05-07T10:41:42;9.63;;;8.63;;
6251;SDS011;3159;52.414;9.784;2023-05-07T10:44:09;10.20;;;9.20;;
6251;SDS011;3159;52.414;9.784;2023-05-07T10:46:37;10.17;;;8.93;;
6251;SDS011;3159;52.414;9.784;2023-05-07T10:49:08;8.67;;;7.80;;
6251;SDS011;3159;52.414;9.784;2023-05-07T10:51:36;9.30;;;8.40;;
6251;SDS011;3159;52.414;9.784;2023-05-07T10:54:19;8.23;;;7.47;;
6251;SDS011;3159;52.414;9.784;2023-05-07T10:56:52;9.03;;;8.13;;
6251;SDS011;3159;52.414;9.784;2023-05-07T10:59:34;8.97;;;8.07;;
6251;SDS011;3159;52.414;9.784;2023-05-07T11:02:08;8.47;;;7.53;;
6251;SDS011;3159;52.414;9.784;2023-05-07T11:04:36;8.73;;;7.90;;
6251;SDS011;3159;52.414;9.784;2023-05-07T11:10:02;7.93;;;7.20;;
6251;SDS011;3159;52.414;9.784;2023-05-07T11:12:52;8.50;;;7.23;;
6251;SDS011;3159;52.414;9.784;2023-05-07T11:18:09;7.40;;;6.70;;
6251;SDS011;3159;52.414;9.784;2023-05-07T11:26:24;9.30;;;8.37;;
6251;SDS011;3159;52.414;9.784;2023-05-07T11:28:52;8.33;;;7.53;;
6251;SDS011;3159;52.414;9.784;2023-05-07T11:31:20;8.47;;;7.60;;
6251;SDS011;3159;52.414;9.784;2023-05-07T11:33:51;8.07;;;7.07;;
6251;SDS011;3159;52.414;9.784;2023-05-07T11:36:19;11.40;;;7.50;;
6251;SDS011;3159;52.414;9.784;2023-05-07T11:38:48;8.27;;;7.43;;
6251;SDS011;3159;52.414;9.784;2023-05-07T11:41:15;8.20;;;7.40;;
6251;SDS011;3159;52.414;9.784;2023-05-07T11:43:55;8.63;;;7.70;;
6251;SDS011;3159;52.414;9.784;2023-05-07T11:46:23;7.93;;;7.00;;
6251;SDS011;3159;52.414;9.784;2023-05-07T11:48:51;7.17;;;6.47;;
6251;SDS011;3159;52.414;9.784;2023-05-07T11:51:19;8.00;;;6.70;;
6251;SDS011;3159;52.414;9.784;2023-05-07T11:53:46;8.07;;;6.97;;
6251;SDS011;3159;52.414;9.784;2023-05-07T11:56:14;8.07;;;6.67;;
6251;SDS011;3159;52.414;9.784;2023-05-07T11:58:41;9.03;;;7.00;;
6251;SDS011;3159;52.414;9.784;2023-05-07T12:01:10;6.53;;;5.93;;
6251;SDS011;3159;52.414;9.784;2023-05-07T12:03:39;7.03;;;6.43;;
6251;SDS011;3159;52.414;9.784;2023-05-07T12:06:09;7.17;;;6.57;;
6251;SDS011;3159;52.414;9.784;2023-05-07T12:08:37;7.13;;;6.43;;
6251;SDS011;3159;52.414;9.784;2023-05-07T12:11:09;7.80;;;7.00;;
6251;SDS011;3159;52.414;9.784;2023-05-07T12:13:38;6.50;;;5.90;;
6251;SDS011;3159;52.414;9.784;2023-05-07T12:16:05;6.87;;;6.20;;
6251;SDS011;3159;52.414;9.784;2023-05-07T12:18:33;7.17;;;6.57;;
6251;SDS011;3159;52.414;9.784;2023-05-07T12:21:01;6.97;;;6.27;;
6251;SDS011;3159;52.414;9.784;2023-05-07T12:23:31;7.43;;;6.73;;
6251;SDS011;3159;52.414;9.784;2023-05-07T12:25:59;7.70;;;6.90;;
6251;SDS011;3159;52.414;9.784;2023-05-07T12:28:26;6.80;;;6.20;;
6251;SDS011;3159;52.414;9.784;2023-05-07T12:30:53;6.33;;;5.73;;
6251;SDS011;3159;52.414;9.784;2023-05-07T12:33:24;7.20;;;6.50;;
6251;SDS011;3159;52.414;9.784;2023-05-07T12:35:53;6.47;;;5.87;;
6251;SDS011;3159;52.414;9.784;2023-05-07T12:38:21;6.20;;;5.60;;
6251;SDS011;3159;52.414;9.784;2023-05-07T12:40:52;5.43;;;4.93;;
6251;SDS011;3159;52.414;9.784;2023-05-07T12:43:21;6.37;;;5.77;;
6251;SDS011;3159;52.414;9.784;2023-05-07T12:45:51;6.27;;;5.20;;
6251;SDS011;3159;52.414;9.784;2023-05-07T12:48:20;5.50;;;5.00;;
6251;SDS011;3159;52.414;9.784;2023-05-07T12:50:49;5.30;;;4.80;;
6251;SDS011;3159;52.414;9.784;2023-05-07T12:53:16;5.93;;;5.43;;
6251;SDS011;3159;52.414;9.784;2023-05-07T12:55:46;5.50;;;4.97;;
6251;SDS011;3159;52.414;9.784;2023-05-07T12:58:16;6.23;;;5.60;;
6251;SDS011;3159;52.414;9.784;2023-05-07T13:00:44;5.90;;;5.30;;
6251;SDS011;3159;52.414;9.784;2023-05-07T13:03:16;5.83;;;5.23;;
6251;SDS011;3159;52.414;9.784;2023-05-07T13:05:48;5.83;;;5.30;;
6251;SDS011;3159;52.414;9.784;2023-05-07T13:08:23;7.23;;;6.47;;
6251;SDS011;3159;52.414;9.784;2023-05-07T13:10:51;6.43;;;5.83;;
6251;SDS011;3159;52.414;9.784;2023-05-07T13:13:19;6.27;;;5.67;;
6251;SDS011;3159;52.414;9.784;2023-05-07T13:15:46;5.30;;;4.80;;
6251;SDS011;3159;52.414;9.784;2023-05-07T13:18:13;7.10;;;5.93;;
6251;SDS011;3159;52.414;9.784;2023-05-07T13:20:40;6.13;;;5.57;;
6251;SDS011;3159;52.414;9.784;2023-05-07T13:23:07;5.53;;;5.03;;
6251;SDS011;3159;52.414;9.784;2023-05-07T13:25:34;6.03;;;5.43;;
6251;SDS011;3159;52.414;9.784;2023-05-07T13:28:01;6.27;;;5.67;;
6251;SDS011;3159;52.414;9.784;2023-05-07T13:30:30;6.37;;;5.77;;
6251;SDS011;3159;52.414;9.784;2023-05-07T13:32:57;8.37;;;7.47;;
6251;SDS011;3159;52.414;9.784;2023-05-07T13:35:24;6.80;;;6.20;;
6251;SDS011;3159;52.414;9.784;2023-05-07T13:37:51;7.37;;;6.67;;
6251;SDS011;3159;52.414;9.784;2023-05-07T13:40:19;7.13;;;6.43;;
6251;SDS011;3159;52.414;9.784;2023-05-07T13:42:46;7.63;;;6.87;;
6251;SDS011;3159;52.414;9.784;2023-05-07T13:45:13;7.53;;;6.83;;
6251;SDS011;3159;52.414;9.784;2023-05-07T13:47:42;8.30;;;7.50;;
6251;SDS011;3159;52.414;9.784;2023-05-07T13:50:09;7.53;;;6.47;;
6251;SDS011;3159;52.414;9.784;2023-05-07T13:52:38;9.40;;;7.47;;
6251;SDS011;3159;52.414;9.784;2023-05-07T13:55:08;9.27;;;7.93;;
6251;SDS011;3159;52.414;9.784;2023-05-07T13:57:35;8.07;;;7.27;;
6251;SDS011;3159;52.414;9.784;2023-05-07T14:00:02;7.73;;;6.63;;
6251;SDS011;3159;52.414;9.784;2023-05-07T14:02:30;7.00;;;6.33;;
6251;SDS011;3159;52.414;9.784;2023-05-07T14:04:58;7.00;;;5.67;;
6251;SDS011;3159;52.414;9.784;2023-05-07T14:07:25;6.40;;;5.80;;
6251;SDS011;3159;52.414;9.784;2023-05-07T14:09:53;8.10;;;7.00;;
6251;SDS011;3159;52.414;9.784;2023-05-07T14:12:20;7.17;;;6.37;;
6251;SDS011;3159;52.414;9.784;2023-05-07T14:14:47;7.10;;;6.40;;
6251;SDS011;3159;52.414;9.784;2023-05-07T14:17:15;7.07;;;6.37;;
6251;SDS011;3159;52.414;9.784;2023-05-07T14:19:42;8.50;;;6.43;;
6251;SDS011;3159;52.414;9.784;2023-05-07T14:22:10;8.30;;;6.23;;
6251;SDS011;3159;52.414;9.784;2023-05-07T14:24:39;7.17;;;6.23;;
6251;SDS011;3159;52.414;9.784;2023-05-07T14:27:06;6.47;;;5.87;;
6251;SDS011;3159;52.414;9.784;2023-05-07T14:29:33;7.03;;;6.43;;
6251;SDS011;3159;52.414;9.784;2023-05-07T14:32:01;6.63;;;5.93;;
6251;SDS011;3159;52.414;9.784;2023-05-07T14:34:28;7.23;;;5.87;;
6251;SDS011;3159;52.414;9.784;2023-05-07T14:36:55;7.13;;;6.27;;
6251;SDS011;3159;52.414;9.784;2023-05-07T14:39:23;7.00;;;6.30;;
6251;SDS011;3159;52.414;9.784;2023-05-07T14:41:50;7.20;;;6.23;;
6251;SDS011;3159;52.414;9.784;2023-05-07T14:44:19;7.37;;;5.63;;
6251;SDS011;3159;52.414;9.784;2023-05-07T14:46:46;9.30;;;6.10;;
6251;SDS011;3159;52.414;9.784;2023-05-07T14:49:13;6.97;;;6.27;;
6251;SDS011;3159;52.414;9.784;2023-05-07T14:51:42;7.30;;;6.57;;
6251;SDS011;3159;52.414;9.784;2023-05-07T14:54:10;7.13;;;6.33;;
6251;SDS011;3159;52.414;9.784;2023-05-07T14:56:38;6.73;;;6.00;;
6251;SDS011;3159;52.414;9.784;2023-05-07T14:59:05;6.40;;;5.80;;
6251;SDS011;3159;52.414;9.784;2023-05-07T15:01:33;7.30;;;5.80;;
6251;SDS011;3159;52.414;9.784;2023-05-07T15:04:01;6.17;;;5.57;;
6251;SDS011;3159;52.414;9.784;2023-05-07T15:06:29;6.57;;;5.87;;
6251;SDS011;3159;52.414;9.784;2023-05-07T15:08:56;6.70;;;6.10;;
6251;SDS011;3159;52.414;9.784;2023-05-07T15:11:23;8.13;;;6.00;;
6251;SDS011;3159;52.414;9.784;2023-05-07T15:13:51;6.63;;;5.93;;
6251;SDS011;3159;52.414;9.784;2023-05-07T15:16:18;6.30;;;5.67;;